This is the latest recevied weather packets stored in our database for station/object K7NDG. If no packets are shown the sender has not sent any weather packets the latest 10 day(s).
| Time | Temp. | Humidity | Pressure | Rain* | Wind** | Luminosity | Snow |
|---|---|---|---|---|---|---|---|
| 1777563579 | 10° C | 89% | 1021.7 hPa | 0 mm | - | 158 W/m² | - |
| 1777563279 | 10° C | 90% | 1021.7 hPa | 0 mm | - | 166 W/m² | - |
| 1777562976 | 9.44° C | 91% | 1021.9 hPa | 0 mm | - | 133 W/m² | - |
| 1777562067 | 8.89° C | 92% | 1022 hPa | 0 mm | - | 133 W/m² | - |
| 1777561460 | 8.89° C | 93% | 1022.1 hPa | 0 mm | - | 113 W/m² | - |
| 1777558727 | 7.78° C | 93% | 1022.1 hPa | 0 mm | - | 73 W/m² | - |
| 1777557816 | 7.22° C | 93% | 1022 hPa | 0 mm | - | 44 W/m² | - |
| 1777554480 | 7.22° C | 93% | 1021.6 hPa | 0 mm | - | 0 W/m² | - |
| 1777552354 | 7.22° C | 93% | 1021.5 hPa | 0 mm | - | 0 W/m² | - |
| 1777548107 | 7.22° C | 91% | 1021.5 hPa | 0 mm | - | 0 W/m² | - |
| 1777545985 | 6.67° C | 89% | 1021.8 hPa | 0 mm | - | 0 W/m² | - |
| 1777545681 | 6.67° C | 89% | 1021.6 hPa | 0 mm | - | 0 W/m² | - |
| 1777545378 | 6.67° C | 89% | 1021.8 hPa | 0 mm | - | 0 W/m² | - |
| 1777545075 | 6.67° C | 89% | 1021.8 hPa | 0 mm | - | 0 W/m² | - |
| 1777544772 | 6.67° C | 89% | 1021.8 hPa | 0 mm | - | 0 W/m² | - |
| 1777544467 | 6.67° C | 89% | 1021.8 hPa | 0 mm | - | 0 W/m² | - |
| 1777544164 | 6.67° C | 89% | 1021.9 hPa | 0 mm | - | 0 W/m² | - |
| 1777543862 | 7.22° C | 89% | 1021.8 hPa | 0 mm | - | 0 W/m² | - |
| 1777543557 | 7.22° C | 89% | 1022 hPa | 0 mm | - | 0 W/m² | - |
| 1777543254 | 7.22° C | 89% | 1021.7 hPa | 0 mm | - | 0 W/m² | - |
| 1777542646 | 6.67° C | 88% | 1021.8 hPa | 0 mm | - | 0 W/m² | - |
| 1777542343 | 7.22° C | 88% | 1022 hPa | 0 mm | - | 0 W/m² | - |
| 1777542040 | 7.22° C | 88% | 1021.9 hPa | 0 mm | - | 0 W/m² | - |
| 1777541737 | 7.22° C | 88% | 1021.9 hPa | 0 mm | - | 0 W/m² | - |
| 1777541433 | 7.22° C | 88% | 1022 hPa | 0 mm | - | 0 W/m² | - |
* Rain latest hour (hover to see other rain measurements)
** Current wind speed in m/s (hover to see current wind gust speed)